首页
METAR-TAF:

METAR-TAF

机场 :

尤馬, 亞利桑那州, 美国

纬度: 32-37-25N, 经度: 113-45-50W, 海拔: 64米

当前天气观测

该预报发布于1小时和12分钟前的21:57 UTC
风速9节,风向
温度 43°C
湿度 9%
气压 1003 hPa
能見度: 16.1公里
天空无云

METAR: KNYL 152157Z AUTO 19009KT 10SM CLR 43/04 A2962 RMK AO2 SLP025 T04330039

时间: 16:09 (23:09 UTC)

预报

预报有效从15日的 21点(UTC)到 16日的 21点(UTC)
风速10节,风向南转西南
能见度10公里或以上
天空无云
从 15日的 2100点(UTC)
风速15节,风向,有时为25节阵风
能见度10公里或以上
天空无云
从 16日的 0600点(UTC)
风速10节,风向南转西南,有时为15节阵风
能见度10公里或以上
天空无云

TAF: KNYL 1521/1621 20010KT 9999 SKC QNH2971INS FM152100 19015G25KT 9999 SKC QNH2965INS FM160600 20010G15KT 9999 SKC QNH2965INS QNH2958INS T43/1523Z T22/1615Z

超过4000个机场的气象观测和天气预报(METAR&TAF报告)。

可查询的气象台以黄色和红色小点在地图上表示。

将鼠标移到小点上方,可查看气象台名称。

然后点击查看天气观测和预报。

如需切换地图:点击带黑十字的绿色按钮放大地图;点击带横线的绿色按钮缩小地图;或者点击绿色箭头查看邻近地区的地图。


METAR-TAF: